Time;durP1;ratioP1;P1;durP2;ratioP2;P2;SDS_P1;SDS_P2;PMS_P1;PMS_P2;Temp;Humidity;BMP_temperature;BMP_pressure;BME280_temperature;BME280_humidity;BME280_pressure;Samples;Min_cycle;Max_cycle;Signal;HPM_P1;HPM_P2
2023/10/07 00:02:17;;;;;;;47.75;8.05;;;;;;;;;;5117112;27;20050;-67
2023/10/07 00:04:44;;;;;;;51.63;7.45;;;;;;;;;;5135739;27;20051;-65
2023/10/07 00:07:14;;;;;;;37.03;6.90;;;;;;;;;;5116797;27;20054;-66
2023/10/07 00:09:42;;;;;;;32.90;6.97;;;;;;;;;;5135715;27;20047;-66
2023/10/07 00:12:16;;;;;;;38.33;7.10;;;;;;;;;;5134905;27;20477;-65
2023/10/07 00:14:43;;;;;;;36.72;7.47;;;;;;;;;;5135082;27;20058;-67
2023/10/07 00:17:19;;;;;;;36.17;7.45;;;;;;;;;;5099864;27;20395;-66
2023/10/07 00:19:46;;;;;;;42.15;7.22;;;;;;;;;;5135159;27;20565;-66
2023/10/07 00:22:14;;;;;;;;;;;;;;;;;;5135210;27;20047;-66
2023/10/07 00:24:43;;;;;;;43.92;7.93;;;;;;;;;;5135052;27;19971;-66
2023/10/07 00:27:26;;;;;;;39.97;7.65;;;;;;;;;;5116358;27;20054;-67
2023/10/07 00:29:55;;;;;;;45.47;8.82;;;;;;;;;;5135347;27;20507;-66
2023/10/07 00:32:27;;;;;;;56.67;8.48;;;;;;;;;;5134486;27;20048;-66
2023/10/07 00:35:00;;;;;;;55.15;7.95;;;;;;;;;;5134638;27;20043;-67
2023/10/07 00:37:26;;;;;;;36.97;7.40;;;;;;;;;;5134644;27;20047;-66
2023/10/07 00:39:53;;;;;;;49.05;8.68;;;;;;;;;;5134550;27;20046;-66
2023/10/07 00:42:19;;;;;;;;;;;;;;;;;;5135164;27;20047;-67
2023/10/07 00:44:52;;;;;;;39.33;7.72;;;;;;;;;;5135374;27;19919;-66
2023/10/07 00:47:19;;;;;;;37.47;8.27;;;;;;;;;;5116357;27;20059;-67
2023/10/07 00:52:28;;;;;;;26.40;5.55;;;;;;;;;;5134334;27;19919;-66
2023/10/07 00:55:08;;;;;;;45.00;7.95;;;;;;;;;;5135382;27;20074;-66
2023/10/07 00:57:35;;;;;;;49.75;9.10;;;;;;;;;;5134816;27;20049;-66
2023/10/07 01:00:12;;;;;;;45.67;8.10;;;;;;;;;;5134429;28;20107;-66
2023/10/07 01:02:42;;;;;;;41.78;8.82;;;;;;;;;;5134400;28;20043;-66
2023/10/07 01:05:21;;;;;;;37.08;8.82;;;;;;;;;;5134329;28;20058;-66
2023/10/07 01:07:53;;;;;;;42.35;8.82;;;;;;;;;;5115590;28;20043;-66
2023/10/07 01:10:26;;;;;;;39.90;8.25;;;;;;;;;;5116282;28;20387;-66
2023/10/07 01:12:55;;;;;;;48.30;9.80;;;;;;;;;;5134965;28;20368;-65
2023/10/07 01:15:26;;;;;;;46.10;8.55;;;;;;;;;;5134009;28;20399;-66
2023/10/07 01:18:13;;;;;;;46.83;8.70;;;;;;;;;;5134817;28;20055;-65
2023/10/07 01:21:10;;;;;;;45.70;9.63;;;;;;;;;;5116360;28;20496;-66
2023/10/07 01:23:34;;;;;;;45.83;8.40;;;;;;;;;;5119647;28;20494;-66
2023/10/07 01:26:14;;;;;;;32.67;8.82;;;;;;;;;;5133928;28;20084;-70
2023/10/07 01:28:41;;;;;;;50.53;9.50;;;;;;;;;;5135061;28;20047;-69
2023/10/07 01:31:09;;;;;;;43.10;10.82;;;;;;;;;;5115876;28;20050;-70
2023/10/07 01:33:39;;;;;;;46.92;9.52;;;;;;;;;;5098770;28;20131;-69
2023/10/07 01:36:24;;;;;;;47.65;11.20;;;;;;;;;;5134133;28;20065;-71
2023/10/07 01:38:53;;;;;;;48.45;9.90;;;;;;;;;;5134261;28;20047;-70
2023/10/07 01:41:20;;;;;;;48.95;9.73;;;;;;;;;;5116044;28;20047;-69
2023/10/07 01:43:59;;;;;;;41.30;9.45;;;;;;;;;;5098997;28;20080;-69
2023/10/07 01:46:29;;;;;;;61.42;9.93;;;;;;;;;;5136384;27;20431;-69
2023/10/07 01:48:57;;;;;;;47.85;9.65;;;;;;;;;;5138043;27;20483;-69
2023/10/07 01:51:27;;;;;;;49.70;10.43;;;;;;;;;;5137810;27;20051;-71
2023/10/07 01:53:56;;;;;;;48.72;9.52;;;;;;;;;;5138632;27;20125;-71
2023/10/07 01:56:23;;;;;;;46.58;9.20;;;;;;;;;;5102739;27;20174;-70
2023/10/07 01:58:50;;;;;;;46.67;10.60;;;;;;;;;;5138062;27;20079;-71
2023/10/07 02:01:19;;;;;;;54.88;10.18;;;;;;;;;;5104056;27;20520;-70
2023/10/07 02:03:46;;;;;;;41.53;9.45;;;;;;;;;;5151571;27;20058;-71
2023/10/07 02:06:18;;;;;;;50.83;9.57;;;;;;;;;;5125880;27;20067;-69
2023/10/07 02:08:44;;;;;;;58.70;10.00;;;;;;;;;;5120458;27;20367;-70
2023/10/07 02:11:10;;;;;;;47.17;9.60;;;;;;;;;;5119287;27;20046;-71
2023/10/07 02:13:36;;;;;;;58.37;10.20;;;;;;;;;;5137537;27;20410;-71
2023/10/07 02:16:06;;;;;;;47.75;10.30;;;;;;;;;;5137550;27;20043;-71
2023/10/07 02:18:35;;;;;;;54.97;10.60;;;;;;;;;;5119685;27;20419;-71
2023/10/07 02:21:07;;;;;;;41.05;8.50;;;;;;;;;;5119841;27;20050;-70
2023/10/07 02:23:37;;;;;;;53.75;11.10;;;;;;;;;;5119907;27;20352;-70
2023/10/07 02:26:19;;;;;;;47.58;10.05;;;;;;;;;;5137789;27;20130;-71
2023/10/07 02:28:50;;;;;;;50.47;10.85;;;;;;;;;;5137201;27;20486;-70
2023/10/07 02:31:18;;;;;;;43.58;9.65;;;;;;;;;;5137547;27;20475;-71
2023/10/07 02:33:45;;;;;;;51.88;10.88;;;;;;;;;;5138172;27;20043;-70
2023/10/07 02:36:29;;;;;;;46.05;10.70;;;;;;;;;;5119000;27;20099;-71
2023/10/07 02:38:56;;;;;;;55.95;10.27;;;;;;;;;;5137961;27;20039;-71
2023/10/07 02:41:24;;;;;;;48.60;10.55;;;;;;;;;;5119374;27;20394;-71
2023/10/07 02:43:50;;;;;;;41.63;9.95;;;;;;;;;;5137123;27;20047;-71
2023/10/07 02:46:32;;;;;;;57.80;11.93;;;;;;;;;;5137038;27;20096;-72
2023/10/07 02:49:05;;;;;;;48.58;11.45;;;;;;;;;;5138040;27;20092;-71
2023/10/07 02:51:39;;;;;;;53.97;11.43;;;;;;;;;;5102655;27;20054;-70
2023/10/07 02:55:12;;;;;;;51.90;11.38;;;;;;;;;;5118653;27;20078;-70
2023/10/07 02:57:02;;;;;;;53.95;12.50;;;;;;;;;;5128310;27;20550;-69
2023/10/07 02:59:34;;;;;;;52.93;11.53;;;;;;;;;;5136507;27;20073;-70
2023/10/07 03:02:14;;;;;;;50.88;10.88;;;;;;;;;;5137560;27;20417;-70
2023/10/07 03:04:43;;;;;;;56.47;11.05;;;;;;;;;;5136597;27;20082;-72
2023/10/07 03:07:14;;;;;;;45.67;10.52;;;;;;;;;;5101546;27;20051;-71
2023/10/07 03:09:45;;;;;;;53.15;12.23;;;;;;;;;;5118232;27;20043;-71
2023/10/07 03:12:15;;;;;;;52.53;11.45;;;;;;;;;;5118457;27;20129;-71
2023/10/07 03:14:43;;;;;;;47.00;10.50;;;;;;;;;;5158322;27;20047;-71
2023/10/07 03:17:18;;;;;;;52.55;10.45;;;;;;;;;;5139582;27;20050;-71
2023/10/07 03:19:56;;;;;;;40.22;10.82;;;;;;;;;;5118705;27;20039;-72
2023/10/07 03:22:42;;;;;;;55.53;11.20;;;;;;;;;;5103265;27;20046;-70
2023/10/07 03:25:08;;;;;;;57.30;11.93;;;;;;;;;;5118092;27;20043;-71
2023/10/07 03:27:39;;;;;;;43.33;10.60;;;;;;;;;;5118515;27;20471;-71
2023/10/07 03:30:19;;;;;;;53.47;11.07;;;;;;;;;;5136460;27;20395;-70
2023/10/07 03:32:54;;;;;;;46.03;9.82;;;;;;;;;;5117665;27;20039;-71
2023/10/07 03:38:13;;;;;;;53.63;10.15;;;;;;;;;;5119380;27;20137;-72
2023/10/07 03:40:39;;;;;;;51.67;10.27;;;;;;;;;;5136575;27;20132;-71
2023/10/07 03:43:08;;;;;;;49.47;11.23;;;;;;;;;;5117770;27;20078;-70
2023/10/07 03:45:36;;;;;;;47.13;12.20;;;;;;;;;;5117592;27;20047;-71
2023/10/07 03:48:20;;;;;;;43.25;10.63;;;;;;;;;;5135806;27;20103;-70
2023/10/07 03:50:48;;;;;;;55.53;11.10;;;;;;;;;;5118408;27;20055;-70
2023/10/07 03:53:15;;;;;;;52.90;11.38;;;;;;;;;;5135523;27;20091;-70
2023/10/07 03:55:42;;;;;;;44.97;10.32;;;;;;;;;;5118305;27;20076;-70
2023/10/07 03:58:08;;;;;;;46.33;11.70;;;;;;;;;;5135591;27;20039;-71
2023/10/07 04:00:35;;;;;;;49.83;10.37;;;;;;;;;;5135511;27;20040;-70
2023/10/07 04:03:07;;;;;;;;;;;;;;;;;;5117584;27;20045;-69
2023/10/07 04:05:36;;;;;;;51.10;11.30;;;;;;;;;;5135381;27;19942;-70
2023/10/07 04:08:02;;;;;;;46.42;10.65;;;;;;;;;;5134984;27;20050;-70
2023/10/07 04:10:36;;;;;;;50.97;11.13;;;;;;;;;;5117849;27;20104;-70
2023/10/07 04:13:07;;;;;;;39.35;9.95;;;;;;;;;;5135119;27;20049;-70
2023/10/07 04:15:36;;;;;;;46.70;11.20;;;;;;;;;;5117564;27;20046;-69
2023/10/07 04:18:03;;;;;;;52.53;11.75;;;;;;;;;;5100468;27;20463;-70
2023/10/07 04:20:50;;;;;;;38.58;10.25;;;;;;;;;;5136245;27;20047;-71
2023/10/07 04:23:24;;;;;;;43.08;11.15;;;;;;;;;;5153698;27;20043;-70
2023/10/07 04:26:04;;;;;;;49.20;10.43;;;;;;;;;;5127464;27;20051;-71
2023/10/07 04:28:31;;;;;;;51.35;10.88;;;;;;;;;;5135614;27;20391;-70
2023/10/07 04:30:57;;;;;;;53.13;10.43;;;;;;;;;;5135325;27;20133;-71
2023/10/07 04:33:31;;;;;;;53.53;11.37;;;;;;;;;;5117340;27;20039;-71
2023/10/07 04:36:03;;;;;;;49.00;11.20;;;;;;;;;;5135231;27;20372;-71
2023/10/07 04:43:59;;;;;;;48.37;10.10;;;;;;;;;;5134736;27;20047;-70
2023/10/07 04:46:28;;;;;;;49.47;10.65;;;;;;;;;;5117005;27;20459;-70
2023/10/07 04:48:55;;;;;;;44.83;10.85;;;;;;;;;;5116781;27;20087;-72
2023/10/07 04:51:46;;;;;;;;;;;;;;;;;;5134906;27;20411;-70
2023/10/07 04:54:23;;;;;;;49.67;9.98;;;;;;;;;;5134738;27;19921;-71
2023/10/07 04:57:00;;;;;;;38.85;10.23;;;;;;;;;;5134312;27;20047;-70
2023/10/07 04:59:27;;;;;;;34.78;8.25;;;;;;;;;;5134580;28;20436;-72
2023/10/07 05:02:01;;;;;;;46.15;11.63;;;;;;;;;;5116456;28;20386;-70
2023/10/07 05:04:28;;;;;;;45.58;10.15;;;;;;;;;;5099507;28;20099;-70
2023/10/07 05:06:54;;;;;;;47.65;9.95;;;;;;;;;;5099230;28;20076;-70
2023/10/07 05:09:21;;;;;;;49.88;9.35;;;;;;;;;;5134319;28;20561;-72
2023/10/07 05:11:47;;;;;;;35.00;8.27;;;;;;;;;;5116976;28;20425;-73
2023/10/07 05:14:22;;;;;;;46.30;9.32;;;;;;;;;;5115913;28;20501;-71
2023/10/07 05:16:48;;;;;;;40.97;9.10;;;;;;;;;;5134378;28;20131;-71
2023/10/07 05:19:22;;;;;;;45.38;9.60;;;;;;;;;;5116065;28;20054;-72
2023/10/07 05:21:58;;;;;;;51.20;10.93;;;;;;;;;;5137595;27;20082;-69
2023/10/07 05:24:28;;;;;;;44.47;9.23;;;;;;;;;;5139633;27;20100;-70
2023/10/07 05:26:55;;;;;;;46.28;10.80;;;;;;;;;;5102966;27;20043;-70
2023/10/07 05:29:24;;;;;;;47.20;10.65;;;;;;;;;;5139088;27;20159;-71
2023/10/07 05:31:51;;;;;;;39.35;8.38;;;;;;;;;;5114436;27;20047;-71
2023/10/07 05:34:18;;;;;;;41.95;10.15;;;;;;;;;;5138986;27;20046;-71
2023/10/07 05:36:45;;;;;;;43.38;9.13;;;;;;;;;;5138712;27;20058;-70
2023/10/07 05:39:15;;;;;;;37.72;9.30;;;;;;;;;;5120488;27;20051;-71
2023/10/07 05:41:44;;;;;;;42.55;8.98;;;;;;;;;;5120265;27;20398;-71
2023/10/07 05:44:11;;;;;;;49.70;10.55;;;;;;;;;;5138505;27;20126;-71
2023/10/07 05:46:37;;;;;;;53.10;9.63;;;;;;;;;;5119735;27;20053;-72
2023/10/07 05:49:04;;;;;;;49.20;9.53;;;;;;;;;;5137628;27;20063;-71
2023/10/07 05:51:31;;;;;;;39.85;9.27;;;;;;;;;;5120037;27;20051;-71
2023/10/07 05:53:58;;;;;;;42.90;10.05;;;;;;;;;;5138063;27;20474;-70
2023/10/07 05:56:24;;;;;;;51.03;9.23;;;;;;;;;;5138322;27;20431;-71
2023/10/07 05:58:51;;;;;;;44.55;9.63;;;;;;;;;;5119913;27;20047;-70
2023/10/07 06:01:18;;;;;;;50.70;9.85;;;;;;;;;;5119759;27;20101;-70
2023/10/07 06:03:44;;;;;;;;;;;;;;;;;;5139096;27;20382;-71
2023/10/07 06:06:10;;;;;;;36.38;8.40;;;;;;;;;;5119906;27;20259;-70
2023/10/07 06:08:37;;;;;;;39.33;9.00;;;;;;;;;;5102933;27;20047;-71
2023/10/07 06:11:04;;;;;;;;;;;;;;;;;;5119985;27;20333;-69
2023/10/07 06:13:33;;;;;;;34.80;8.45;;;;;;;;;;5137556;27;20034;-71
2023/10/07 06:16:04;;;;;;;35.58;8.20;;;;;;;;;;5119427;27;20340;-69
2023/10/07 06:18:34;;;;;;;39.67;9.30;;;;;;;;;;5137611;27;20119;-71
2023/10/07 06:23:45;;;;;;;45.28;8.38;;;;;;;;;;5119533;27;20051;-70
2023/10/07 06:26:12;;;;;;;39.00;9.07;;;;;;;;;;5102150;27;20055;-72
2023/10/07 06:28:44;;;;;;;50.97;9.85;;;;;;;;;;5118967;27;20092;-71
2023/10/07 06:31:10;;;;;;;49.13;9.25;;;;;;;;;;5118859;27;20051;-71
2023/10/07 06:33:39;;;;;;;32.60;8.00;;;;;;;;;;5136856;27;20525;-71
2023/10/07 06:36:06;;;;;;;44.78;9.05;;;;;;;;;;5136916;27;20055;-70
2023/10/07 06:38:33;;;;;;;43.35;8.88;;;;;;;;;;5119652;27;20047;-72
2023/10/07 06:41:00;;;;;;;36.38;9.18;;;;;;;;;;5137822;27;20043;-71
2023/10/07 06:43:26;;;;;;;48.08;8.68;;;;;;;;;;5147066;27;20088;-74
2023/10/07 06:45:54;;;;;;;41.57;8.87;;;;;;;;;;5138917;27;20126;-70
2023/10/07 06:48:27;;;;;;;34.88;8.95;;;;;;;;;;5127096;27;20106;-70
2023/10/07 06:50:53;;;;;;;38.75;8.57;;;;;;;;;;5148390;27;20051;-72
2023/10/07 06:53:23;;;;;;;45.80;8.65;;;;;;;;;;5136372;27;20415;-70
2023/10/07 06:55:53;;;;;;;45.85;9.15;;;;;;;;;;5118383;27;20130;-69
2023/10/07 06:58:22;;;;;;;36.08;9.25;;;;;;;;;;5118268;27;20086;-70
2023/10/07 07:00:56;;;;;;;42.47;9.52;;;;;;;;;;5102273;27;20051;-71
2023/10/07 07:03:25;;;;;;;43.22;8.55;;;;;;;;;;5118339;27;20055;-70
2023/10/07 07:05:54;;;;;;;40.45;8.57;;;;;;;;;;5136271;27;20507;-72
2023/10/07 07:08:22;;;;;;;43.95;9.18;;;;;;;;;;5136805;27;20072;-71
2023/10/07 07:10:55;;;;;;;46.40;9.77;;;;;;;;;;5136728;27;20054;-70
2023/10/07 07:13:27;;;;;;;40.75;10.05;;;;;;;;;;5117781;27;20061;-71
2023/10/07 07:15:57;;;;;;;46.17;8.98;;;;;;;;;;5136421;27;20042;-72
2023/10/07 07:18:26;;;;;;;49.17;9.50;;;;;;;;;;5136290;27;20554;-72
2023/10/07 07:23:25;;;;;;;40.33;8.80;;;;;;;;;;5135990;27;20186;-71
2023/10/07 07:26:09;;;;;;;35.80;8.10;;;;;;;;;;5136584;27;20054;-70
2023/10/07 07:28:36;;;;;;;33.75;8.60;;;;;;;;;;5120310;27;20047;-72
2023/10/07 07:31:10;;;;;;;41.30;9.30;;;;;;;;;;5135647;27;20546;-71
2023/10/07 07:33:36;;;;;;;37.70;8.60;;;;;;;;;;5117324;27;20470;-71
2023/10/07 07:36:06;;;;;;;35.57;8.63;;;;;;;;;;5118429;27;20106;-71
2023/10/07 07:38:43;;;;;;;35.92;8.65;;;;;;;;;;5117430;27;20300;-71
2023/10/07 07:41:09;;;;;;;;;;;;;;;;;;5137185;27;20047;-70
2023/10/07 07:43:39;;;;;;;40.53;8.93;;;;;;;;;;5117083;27;20018;-71
2023/10/07 07:49:08;;;;;;;34.83;7.65;;;;;;;;;;5086578;27;20480;-72
2023/10/07 07:51:38;;;;;;;29.20;8.73;;;;;;;;;;5145911;27;20054;-71
2023/10/07 07:54:07;;;;;;;33.28;7.15;;;;;;;;;;5118069;27;20424;-71
2023/10/07 07:56:37;;;;;;;32.35;7.00;;;;;;;;;;5136119;27;20047;-72
2023/10/07 07:59:13;;;;;;;38.35;8.18;;;;;;;;;;5118339;27;20085;-71
2023/10/07 08:01:44;;;;;;;34.65;6.32;;;;;;;;;;5135561;27;20069;-70
2023/10/07 08:04:17;;;;;;;34.28;7.10;;;;;;;;;;5135820;27;20459;-71
2023/10/07 08:06:43;;;;;;;27.65;6.20;;;;;;;;;;5117409;27;20069;-72
2023/10/07 08:09:11;;;;;;;27.50;6.15;;;;;;;;;;5135400;27;20051;-71
2023/10/07 08:11:37;;;;;;;31.48;7.05;;;;;;;;;;5117253;27;20089;-70
2023/10/07 08:14:09;;;;;;;33.20;7.50;;;;;;;;;;5135134;27;20043;-70
2023/10/07 08:16:50;;;;;;;25.98;7.28;;;;;;;;;;5117257;27;20088;-73
2023/10/07 08:19:20;;;;;;;27.20;6.28;;;;;;;;;;5135848;27;20043;-77
2023/10/07 08:21:51;;;;;;;35.80;6.80;;;;;;;;;;5116735;27;20047;-70
2023/10/07 08:24:18;;;;;;;37.00;7.20;;;;;;;;;;5116605;27;20039;-73
2023/10/07 08:26:48;;;;;;;23.05;5.03;;;;;;;;;;5116778;27;20486;-70
2023/10/07 08:29:30;;;;;;;21.25;6.57;;;;;;;;;;5116995;27;20055;-70
2023/10/07 08:31:57;;;;;;;33.17;6.93;;;;;;;;;;5117343;27;20062;-70
2023/10/07 08:34:23;;;;;;;;;;;;;;;;;;5135501;27;20061;-69
2023/10/07 08:36:49;;;;;;;29.33;6.53;;;;;;;;;;5134765;27;20022;-70
2023/10/07 08:39:26;;;;;;;29.83;6.60;;;;;;;;;;5100518;27;20053;-70
2023/10/07 08:41:52;;;;;;;;;;;;;;;;;;5134898;27;20487;-69
2023/10/07 08:44:21;;;;;;;23.55;6.00;;;;;;;;;;5099799;27;20305;-71
2023/10/07 08:46:52;;;;;;;29.83;5.90;;;;;;;;;;5134533;27;20043;-70
2023/10/07 08:49:29;;;;;;;30.15;6.40;;;;;;;;;;5116059;27;20475;-70
2023/10/07 08:51:56;;;;;;;26.90;5.40;;;;;;;;;;5117044;27;20043;-70
2023/10/07 08:54:26;;;;;;;27.58;5.45;;;;;;;;;;5134413;27;20083;-71
2023/10/07 08:56:57;;;;;;;32.92;6.47;;;;;;;;;;5134737;27;20058;-71
2023/10/07 08:59:33;;;;;;;22.85;5.32;;;;;;;;;;5135084;27;20058;-71
2023/10/07 09:02:03;;;;;;;23.77;5.10;;;;;;;;;;5147168;28;20043;-69
2023/10/07 09:04:33;;;;;;;31.90;5.95;;;;;;;;;;5131439;28;20471;-71
2023/10/07 09:07:08;;;;;;;27.58;5.60;;;;;;;;;;5134657;28;20082;-70
2023/10/07 09:09:38;;;;;;;20.98;5.18;;;;;;;;;;5134457;28;20126;-71
2023/10/07 09:12:18;;;;;;;28.23;5.18;;;;;;;;;;5099888;28;20455;-69
2023/10/07 09:14:57;;;;;;;26.80;5.53;;;;;;;;;;5134971;28;20069;-69
2023/10/07 09:17:26;;;;;;;26.60;4.95;;;;;;;;;;5115664;28;20540;-70
2023/10/07 09:19:53;;;;;;;21.08;4.72;;;;;;;;;;5116114;28;20073;-71
2023/10/07 09:22:35;;;;;;;32.17;5.13;;;;;;;;;;5115874;28;20039;-68
2023/10/07 09:25:17;;;;;;;18.98;4.75;;;;;;;;;;5118377;28;20051;-70
2023/10/07 09:27:58;;;;;;;23.73;4.47;;;;;;;;;;5134178;28;20043;-70
2023/10/07 09:33:35;;;;;;;24.20;4.45;;;;;;;;;;5134276;28;20496;-71
2023/10/07 09:38:48;;;;;;;22.98;4.72;;;;;;;;;;5134168;28;20050;-70
2023/10/07 09:41:24;;;;;;;24.60;3.97;;;;;;;;;;5134141;28;20043;-70
2023/10/07 09:43:57;;;;;;;23.83;3.92;;;;;;;;;;5116820;28;20061;-70
2023/10/07 09:46:34;;;;;;;23.48;4.45;;;;;;;;;;5134870;28;20127;-71
2023/10/07 09:49:01;;;;;;;24.13;4.30;;;;;;;;;;5113248;28;20060;-70
2023/10/07 09:51:47;;;;;;;18.33;4.10;;;;;;;;;;5113704;28;20047;-71
2023/10/07 09:54:36;;;;;;;27.95;4.43;;;;;;;;;;5114352;28;20122;-75
2023/10/07 09:57:14;;;;;;;23.20;4.30;;;;;;;;;;5095374;28;20130;-71
2023/10/07 09:59:56;;;;;;;20.15;3.83;;;;;;;;;;5114131;28;20086;-70
2023/10/07 10:02:25;;;;;;;17.30;4.55;;;;;;;;;;5111909;28;20522;-70
2023/10/07 10:05:24;;;;;;;25.60;4.00;;;;;;;;;;5112431;28;20048;-70
2023/10/07 10:08:08;;;;;;;24.83;4.30;;;;;;;;;;5098766;28;20100;-71
2023/10/07 10:10:34;;;;;;;20.38;4.50;;;;;;;;;;5124791;28;20044;-70
2023/10/07 10:18:05;;;;;;;20.90;4.00;;;;;;;;;;5117107;28;20309;-72
2023/10/07 10:20:45;;;;;;;28.08;4.22;;;;;;;;;;5116356;28;20048;-72
2023/10/07 10:23:20;;;;;;;21.55;4.00;;;;;;;;;;5116976;28;20039;-71
2023/10/07 10:25:52;;;;;;;26.07;4.27;;;;;;;;;;5116072;28;20048;-71
2023/10/07 10:28:25;;;;;;;27.45;4.03;;;;;;;;;;5116739;28;20273;-71
2023/10/07 10:30:53;;;;;;;19.90;3.90;;;;;;;;;;5117205;28;20483;-70
2023/10/07 10:33:35;;;;;;;27.73;4.32;;;;;;;;;;5116600;28;20040;-71
2023/10/07 10:36:02;;;;;;;21.02;4.20;;;;;;;;;;5117289;28;20168;-70
2023/10/07 10:38:37;;;;;;;23.13;3.72;;;;;;;;;;5099454;28;20494;-69
2023/10/07 10:41:04;;;;;;;23.25;4.45;;;;;;;;;;5115451;28;20132;-71
2023/10/07 10:43:31;;;;;;;;;;;;;;;;;;5117379;28;20047;-74
2023/10/07 10:46:27;;;;;;;20.77;4.05;;;;;;;;;;5116933;28;19919;-73
2023/10/07 10:48:54;;;;;;;30.17;4.20;;;;;;;;;;5133613;27;20051;-73
2023/10/07 10:51:20;;;;;;;29.10;4.53;;;;;;;;;;5119279;27;20051;-72
2023/10/07 10:53:48;;;;;;;29.60;4.68;;;;;;;;;;5136946;27;20364;-71
2023/10/07 10:56:14;;;;;;;30.15;4.72;;;;;;;;;;5118478;27;20043;-72
2023/10/07 10:58:40;;;;;;;21.42;4.22;;;;;;;;;;5137016;27;20062;-75
2023/10/07 11:01:06;;;;;;;20.95;3.95;;;;;;;;;;5136840;27;20131;-71
2023/10/07 11:03:36;;;;;;;21.70;4.30;;;;;;;;;;5136820;27;20043;-75
2023/10/07 11:06:06;;;;;;;24.40;4.95;;;;;;;;;;5118558;27;20050;-73
2023/10/07 11:08:33;;;;;;;19.63;4.57;;;;;;;;;;5118852;27;20095;-71
2023/10/07 11:11:00;;;;;;;22.65;4.65;;;;;;;;;;5119052;27;20466;-71
2023/10/07 11:13:26;;;;;;;;;;;;;;;;;;5119050;27;20145;-72
2023/10/07 11:15:58;;;;;;;30.40;5.75;;;;;;;;;;5102971;27;19927;-71
2023/10/07 11:18:31;;;;;;;24.95;4.65;;;;;;;;;;5136870;27;20054;-71
2023/10/07 11:20:57;;;;;;;26.88;4.95;;;;;;;;;;5147092;27;20079;-70
2023/10/07 11:23:27;;;;;;;23.52;4.78;;;;;;;;;;5141322;27;20043;-71
2023/10/07 11:25:54;;;;;;;27.70;5.38;;;;;;;;;;5137007;27;20405;-72
2023/10/07 11:28:22;;;;;;;26.10;5.30;;;;;;;;;;5137027;27;20100;-69
2023/10/07 11:30:49;;;;;;;26.25;4.70;;;;;;;;;;5118638;27;20093;-73
2023/10/07 11:33:19;;;;;;;;;;;;;;;;;;5137019;27;20386;-70
2023/10/07 11:35:58;;;;;;;33.13;8.68;;;;;;;;;;5136151;27;19970;-71
2023/10/07 11:38:27;;;;;;;39.00;8.18;;;;;;;;;;5136896;27;20054;-70
2023/10/07 11:40:55;;;;;;;25.20;4.88;;;;;;;;;;5135935;27;20386;-72
2023/10/07 11:43:21;;;;;;;33.17;5.43;;;;;;;;;;5136169;27;20099;-71
2023/10/07 11:45:50;;;;;;;27.58;5.22;;;;;;;;;;5117516;27;20083;-71
2023/10/07 11:48:19;;;;;;;28.48;4.60;;;;;;;;;;5117274;27;20089;-70
2023/10/07 11:50:47;;;;;;;28.30;5.00;;;;;;;;;;5135532;27;20105;-70
2023/10/07 11:53:13;;;;;;;21.77;4.40;;;;;;;;;;5135741;27;20104;-71
2023/10/07 11:55:39;;;;;;;25.13;4.68;;;;;;;;;;5135840;27;20050;-71
2023/10/07 11:58:07;;;;;;;31.33;5.13;;;;;;;;;;5135546;27;20062;-72
2023/10/07 12:00:34;;;;;;;27.83;5.55;;;;;;;;;;5135001;27;20050;-70
2023/10/07 12:03:04;;;;;;;21.95;4.90;;;;;;;;;;5135477;27;20078;-81
2023/10/07 12:05:31;;;;;;;32.50;5.32;;;;;;;;;;5100163;27;20051;-72
2023/10/07 12:08:03;;;;;;;27.25;5.40;;;;;;;;;;5117093;27;20047;-71
2023/10/07 12:10:30;;;;;;;28.00;5.35;;;;;;;;;;5135357;27;20528;-77
2023/10/07 12:12:58;;;;;;;29.13;5.75;;;;;;;;;;5135213;27;20039;-73
2023/10/07 12:15:25;;;;;;;28.70;5.47;;;;;;;;;;5116964;27;20083;-71
2023/10/07 12:17:51;;;;;;;29.60;5.68;;;;;;;;;;5117730;27;20055;-71
2023/10/07 12:20:20;;;;;;;28.00;6.43;;;;;;;;;;5135479;27;20078;-72
2023/10/07 12:22:46;;;;;;;29.38;6.35;;;;;;;;;;5135090;27;20130;-71
2023/10/07 12:25:16;;;;;;;25.83;5.35;;;;;;;;;;5117376;27;20112;-72
2023/10/07 12:27:48;;;;;;;34.05;6.05;;;;;;;;;;5104128;27;20070;-71
2023/10/07 12:30:21;;;;;;;29.15;6.07;;;;;;;;;;5152874;27;20050;-72
2023/10/07 12:32:53;;;;;;;25.05;5.70;;;;;;;;;;5104058;27;20138;-71
2023/10/07 12:35:21;;;;;;;28.17;5.70;;;;;;;;;;5100933;27;20176;-72
2023/10/07 12:37:47;;;;;;;26.85;7.25;;;;;;;;;;5134855;27;20086;-71
2023/10/07 12:40:20;;;;;;;32.38;6.10;;;;;;;;;;5100052;27;20132;-72
2023/10/07 12:42:50;;;;;;;31.52;6.13;;;;;;;;;;5135275;27;20043;-72
2023/10/07 12:45:16;;;;;;;20.48;5.18;;;;;;;;;;5116478;27;20046;-72
2023/10/07 12:47:42;;;;;;;32.97;6.47;;;;;;;;;;5116774;27;20067;-71
2023/10/07 12:50:28;;;;;;;28.00;5.97;;;;;;;;;;5116670;27;20106;-73
2023/10/07 12:52:56;;;;;;;24.98;5.65;;;;;;;;;;5116349;27;20043;-70
2023/10/07 12:55:22;;;;;;;18.60;5.22;;;;;;;;;;5134988;27;20047;-70
2023/10/07 12:57:52;;;;;;;27.55;5.53;;;;;;;;;;5135246;27;20046;-73
2023/10/07 13:00:32;;;;;;;26.95;5.78;;;;;;;;;;5134383;27;20114;-72
2023/10/07 13:03:01;;;;;;;32.08;5.80;;;;;;;;;;5134801;27;20043;-71
2023/10/07 13:05:32;;;;;;;33.38;6.55;;;;;;;;;;5134681;27;20051;-71
2023/10/07 13:07:58;;;;;;;26.67;5.43;;;;;;;;;;5134944;27;20129;-71
2023/10/07 13:10:26;;;;;;;24.40;5.35;;;;;;;;;;5134774;28;20090;-74
2023/10/07 13:12:56;;;;;;;31.85;5.75;;;;;;;;;;5116205;28;20057;-70
2023/10/07 13:15:30;;;;;;;26.75;6.25;;;;;;;;;;5116894;28;20051;-71
2023/10/07 13:17:58;;;;;;;32.63;6.20;;;;;;;;;;5116231;28;20082;-72
2023/10/07 13:20:26;;;;;;;24.35;6.28;;;;;;;;;;5116071;28;20050;-70
2023/10/07 13:22:57;;;;;;;29.60;5.70;;;;;;;;;;5134233;28;20061;-72
2023/10/07 13:25:24;;;;;;;28.90;5.97;;;;;;;;;;5098976;28;20058;-70
2023/10/07 13:27:50;;;;;;;30.00;6.10;;;;;;;;;;5134220;28;20050;-70
2023/10/07 13:30:17;;;;;;;30.00;6.45;;;;;;;;;;5134252;28;20087;-71
2023/10/07 13:32:44;;;;;;;33.45;6.25;;;;;;;;;;5134061;28;20491;-70
2023/10/07 13:35:10;;;;;;;;;;;;;;;;;;5117210;28;20043;-71
2023/10/07 13:37:37;;;;;;;28.60;6.13;;;;;;;;;;5124836;28;19919;-71
2023/10/07 13:40:07;;;;;;;27.13;6.32;;;;;;;;;;5125550;28;20368;-71
2023/10/07 13:42:35;;;;;;;35.15;6.55;;;;;;;;;;5119630;27;20108;-71
2023/10/07 13:45:08;;;;;;;26.80;6.38;;;;;;;;;;5139160;27;20050;-71
2023/10/07 13:47:35;;;;;;;25.48;5.22;;;;;;;;;;5138539;27;20471;-71
2023/10/07 13:50:10;;;;;;;27.65;6.07;;;;;;;;;;5138986;27;20394;-70
2023/10/07 13:52:44;;;;;;;25.88;5.63;;;;;;;;;;5104505;27;20520;-71
2023/10/07 13:55:22;;;;;;;27.52;6.60;;;;;;;;;;5138648;27;20051;-70
2023/10/07 13:57:57;;;;;;;27.95;6.68;;;;;;;;;;5105001;27;20051;-70
2023/10/07 14:00:36;;;;;;;26.88;6.22;;;;;;;;;;5137701;27;20043;-73
2023/10/07 14:03:08;;;;;;;29.15;6.32;;;;;;;;;;5137789;27;20054;-73
2023/10/07 14:05:37;;;;;;;21.92;5.40;;;;;;;;;;5103791;27;20165;-71
2023/10/07 14:08:13;;;;;;;27.38;6.07;;;;;;;;;;5137797;27;20051;-72
2023/10/07 14:10:39;;;;;;;25.98;5.97;;;;;;;;;;5138482;27;20058;-71
2023/10/07 14:13:05;;;;;;;30.88;6.53;;;;;;;;;;5137676;27;20467;-70
2023/10/07 14:15:35;;;;;;;28.33;6.78;;;;;;;;;;5102533;27;20152;-70
2023/10/07 14:18:01;;;;;;;25.92;6.35;;;;;;;;;;5119752;27;20059;-71
2023/10/07 14:20:29;;;;;;;27.67;5.70;;;;;;;;;;5137564;27;20050;-71
2023/10/07 14:22:56;;;;;;;31.67;7.05;;;;;;;;;;5138086;27;20121;-70
2023/10/07 14:25:25;;;;;;;26.92;6.00;;;;;;;;;;5138019;27;20053;-71
2023/10/07 14:27:54;;;;;;;33.88;7.63;;;;;;;;;;5137356;27;20522;-72
2023/10/07 14:30:24;;;;;;;26.50;7.00;;;;;;;;;;5137394;27;20461;-71
2023/10/07 14:32:50;;;;;;;39.83;7.45;;;;;;;;;;5102503;27;20051;-73
2023/10/07 14:35:17;;;;;;;26.67;7.00;;;;;;;;;;5118996;27;20386;-70
2023/10/07 14:37:45;;;;;;;32.10;7.25;;;;;;;;;;5138002;27;20051;-71
2023/10/07 14:40:17;;;;;;;31.55;6.18;;;;;;;;;;5137431;27;20104;-70
2023/10/07 14:42:44;;;;;;;35.45;6.88;;;;;;;;;;5119146;27;20047;-72
2023/10/07 14:45:10;;;;;;;22.67;7.75;;;;;;;;;;5121544;27;20055;-71
2023/10/07 14:47:37;;;;;;;29.52;7.38;;;;;;;;;;5125718;28;20084;-71
2023/10/07 14:50:06;;;;;;;25.02;6.13;;;;;;;;;;5117436;28;20104;-71
2023/10/07 14:52:33;;;;;;;35.38;7.18;;;;;;;;;;5115552;28;20093;-73
2023/10/07 14:55:01;;;;;;;29.67;6.55;;;;;;;;;;5098213;28;20047;-71
2023/10/07 14:57:30;;;;;;;33.60;7.15;;;;;;;;;;5099761;28;20463;-70
2023/10/07 14:59:56;;;;;;;34.30;6.83;;;;;;;;;;5116995;28;20046;-69
2023/10/07 15:02:23;;;;;;;34.70;6.40;;;;;;;;;;5116202;28;20336;-73
2023/10/07 15:04:51;;;;;;;33.90;7.05;;;;;;;;;;5116518;28;20281;-71
2023/10/07 15:07:20;;;;;;;26.77;7.38;;;;;;;;;;5115854;28;20471;-71
2023/10/07 15:09:48;;;;;;;35.55;7.90;;;;;;;;;;5116030;28;20437;-73
2023/10/07 15:12:16;;;;;;;28.90;8.35;;;;;;;;;;5115900;28;20101;-70
2023/10/07 15:14:42;;;;;;;30.30;7.45;;;;;;;;;;5115896;28;20083;-70
2023/10/07 15:17:09;;;;;;;30.65;7.30;;;;;;;;;;5116618;28;20128;-69
2023/10/07 15:19:36;;;;;;;28.73;7.28;;;;;;;;;;5116935;28;20044;-72
2023/10/07 15:22:05;;;;;;;;;;;;;;;;;;5116442;28;20514;-71